sensor_id;sensor_type;location;lat;lon;timestamp;temperature;humidity
3380;DHT22;1703;51.964;7.642;2024-01-27T00:00:57;5.10;99.90
3380;DHT22;1703;51.964;7.642;2024-01-27T00:03:24;5.10;99.90
3380;DHT22;1703;51.964;7.642;2024-01-27T00:05:52;5.10;99.90
3380;DHT22;1703;51.964;7.642;2024-01-27T00:08:19;5.10;99.90
3380;DHT22;1703;51.964;7.642;2024-01-27T00:10:46;5.10;99.90
3380;DHT22;1703;51.964;7.642;2024-01-27T00:13:13;5.10;99.90
3380;DHT22;1703;51.964;7.642;2024-01-27T00:15:40;5.10;99.90
3380;DHT22;1703;51.964;7.642;2024-01-27T00:18:07;5.10;99.90
3380;DHT22;1703;51.964;7.642;2024-01-27T00:20:33;5.20;99.90
3380;DHT22;1703;51.964;7.642;2024-01-27T00:23:02;5.20;99.90
3380;DHT22;1703;51.964;7.642;2024-01-27T00:25:28;5.20;99.90
3380;DHT22;1703;51.964;7.642;2024-01-27T00:27:55;5.20;99.90
3380;DHT22;1703;51.964;7.642;2024-01-27T00:30:22;5.10;99.90
3380;DHT22;1703;51.964;7.642;2024-01-27T00:32:49;5.00;99.90
3380;DHT22;1703;51.964;7.642;2024-01-27T00:35:15;5.10;99.90
3380;DHT22;1703;51.964;7.642;2024-01-27T00:37:42;5.10;99.90
3380;DHT22;1703;51.964;7.642;2024-01-27T00:40:11;5.10;99.90
3380;DHT22;1703;51.964;7.642;2024-01-27T00:42:38;5.10;99.90
3380;DHT22;1703;51.964;7.642;2024-01-27T00:45:05;5.00;99.90
3380;DHT22;1703;51.964;7.642;2024-01-27T00:47:32;5.00;99.90
3380;DHT22;1703;51.964;7.642;2024-01-27T00:50:00;5.00;99.90
3380;DHT22;1703;51.964;7.642;2024-01-27T00:52:26;5.00;99.90
3380;DHT22;1703;51.964;7.642;2024-01-27T00:54:53;5.00;99.90
3380;DHT22;1703;51.964;7.642;2024-01-27T00:57:21;4.90;99.90
3380;DHT22;1703;51.964;7.642;2024-01-27T00:59:48;4.90;99.90
3380;DHT22;1703;51.964;7.642;2024-01-27T01:02:15;4.90;99.90
3380;DHT22;1703;51.964;7.642;2024-01-27T01:04:42;4.80;99.90
3380;DHT22;1703;51.964;7.642;2024-01-27T01:07:10;4.80;99.90
3380;DHT22;1703;51.964;7.642;2024-01-27T01:09:37;4.80;99.90
3380;DHT22;1703;51.964;7.642;2024-01-27T01:12:04;4.80;99.90
3380;DHT22;1703;51.964;7.642;2024-01-27T01:14:33;4.70;99.90
3380;DHT22;1703;51.964;7.642;2024-01-27T01:16:59;4.80;99.90
3380;DHT22;1703;51.964;7.642;2024-01-27T01:19:27;4.80;99.90
3380;DHT22;1703;51.964;7.642;2024-01-27T01:21:53;4.80;99.90
3380;DHT22;1703;51.964;7.642;2024-01-27T01:24:20;4.80;99.90
3380;DHT22;1703;51.964;7.642;2024-01-27T01:26:47;4.80;99.90
3380;DHT22;1703;51.964;7.642;2024-01-27T01:29:14;4.70;99.90
3380;DHT22;1703;51.964;7.642;2024-01-27T01:31:42;4.80;99.90
3380;DHT22;1703;51.964;7.642;2024-01-27T01:34:09;4.70;99.90
3380;DHT22;1703;51.964;7.642;2024-01-27T01:36:36;4.70;99.90
3380;DHT22;1703;51.964;7.642;2024-01-27T01:39:03;4.70;99.90
3380;DHT22;1703;51.964;7.642;2024-01-27T01:41:30;4.80;99.90
3380;DHT22;1703;51.964;7.642;2024-01-27T01:43:57;4.80;99.90
3380;DHT22;1703;51.964;7.642;2024-01-27T01:46:23;4.80;99.90
3380;DHT22;1703;51.964;7.642;2024-01-27T01:48:52;4.70;99.90
3380;DHT22;1703;51.964;7.642;2024-01-27T01:51:18;4.70;99.90
3380;DHT22;1703;51.964;7.642;2024-01-27T01:53:47;4.70;99.90
3380;DHT22;1703;51.964;7.642;2024-01-27T01:56:14;4.70;99.90
3380;DHT22;1703;51.964;7.642;2024-01-27T01:58:41;4.70;99.90
3380;DHT22;1703;51.964;7.642;2024-01-27T02:01:09;4.60;99.90
3380;DHT22;1703;51.964;7.642;2024-01-27T02:03:36;4.60;99.90
3380;DHT22;1703;51.964;7.642;2024-01-27T02:06:04;4.60;99.90
3380;DHT22;1703;51.964;7.642;2024-01-27T02:08:32;4.60;99.90
3380;DHT22;1703;51.964;7.642;2024-01-27T02:10:59;4.60;99.90
3380;DHT22;1703;51.964;7.642;2024-01-27T02:13:28;4.60;99.90
3380;DHT22;1703;51.964;7.642;2024-01-27T02:15:54;4.70;99.90
3380;DHT22;1703;51.964;7.642;2024-01-27T02:18:21;4.60;99.90
3380;DHT22;1703;51.964;7.642;2024-01-27T02:20:48;4.60;99.90
3380;DHT22;1703;51.964;7.642;2024-01-27T02:23:16;4.70;99.90
3380;DHT22;1703;51.964;7.642;2024-01-27T02:25:44;4.70;99.90
3380;DHT22;1703;51.964;7.642;2024-01-27T02:28:11;4.70;99.90
3380;DHT22;1703;51.964;7.642;2024-01-27T02:30:39;4.60;99.90
3380;DHT22;1703;51.964;7.642;2024-01-27T02:33:06;4.60;99.90
3380;DHT22;1703;51.964;7.642;2024-01-27T02:35:33;4.60;99.90
3380;DHT22;1703;51.964;7.642;2024-01-27T02:37:59;4.60;99.90
3380;DHT22;1703;51.964;7.642;2024-01-27T02:40:26;4.60;99.90
3380;DHT22;1703;51.964;7.642;2024-01-27T02:42:54;4.60;99.90
3380;DHT22;1703;51.964;7.642;2024-01-27T02:45:21;4.60;99.90
3380;DHT22;1703;51.964;7.642;2024-01-27T02:47:48;4.60;99.90
3380;DHT22;1703;51.964;7.642;2024-01-27T02:50:15;4.50;99.90
3380;DHT22;1703;51.964;7.642;2024-01-27T02:52:42;4.50;99.90
3380;DHT22;1703;51.964;7.642;2024-01-27T02:55:09;4.50;99.90
3380;DHT22;1703;51.964;7.642;2024-01-27T02:57:35;4.40;99.90
3380;DHT22;1703;51.964;7.642;2024-01-27T03:00:04;4.40;99.90
3380;DHT22;1703;51.964;7.642;2024-01-27T03:02:31;4.30;99.90
3380;DHT22;1703;51.964;7.642;2024-01-27T03:04:58;4.30;99.90
3380;DHT22;1703;51.964;7.642;2024-01-27T03:07:25;4.30;99.90
3380;DHT22;1703;51.964;7.642;2024-01-27T03:09:51;4.30;99.90
3380;DHT22;1703;51.964;7.642;2024-01-27T03:12:18;4.20;99.90
3380;DHT22;1703;51.964;7.642;2024-01-27T03:14:45;4.20;99.90
3380;DHT22;1703;51.964;7.642;2024-01-27T03:17:15;4.20;99.90
3380;DHT22;1703;51.964;7.642;2024-01-27T03:19:42;4.20;99.90
3380;DHT22;1703;51.964;7.642;2024-01-27T03:22:08;4.20;99.90
3380;DHT22;1703;51.964;7.642;2024-01-27T03:24:36;4.10;99.90
3380;DHT22;1703;51.964;7.642;2024-01-27T03:27:03;4.10;99.90
3380;DHT22;1703;51.964;7.642;2024-01-27T03:29:30;4.10;99.90
3380;DHT22;1703;51.964;7.642;2024-01-27T03:31:57;4.00;99.90
3380;DHT22;1703;51.964;7.642;2024-01-27T03:34:25;4.00;99.90
3380;DHT22;1703;51.964;7.642;2024-01-27T03:36:52;4.00;99.90
3380;DHT22;1703;51.964;7.642;2024-01-27T03:39:19;4.00;99.90
3380;DHT22;1703;51.964;7.642;2024-01-27T03:41:46;4.00;99.90
3380;DHT22;1703;51.964;7.642;2024-01-27T03:44:13;4.00;99.90
3380;DHT22;1703;51.964;7.642;2024-01-27T03:46:39;4.00;99.90
3380;DHT22;1703;51.964;7.642;2024-01-27T03:49:05;3.90;99.90
3380;DHT22;1703;51.964;7.642;2024-01-27T03:51:34;3.90;99.90
3380;DHT22;1703;51.964;7.642;2024-01-27T03:54:00;3.80;99.90
3380;DHT22;1703;51.964;7.642;2024-01-27T03:56:27;3.80;99.90
3380;DHT22;1703;51.964;7.642;2024-01-27T03:58:54;3.80;99.90
3380;DHT22;1703;51.964;7.642;2024-01-27T04:01:21;3.80;99.90
3380;DHT22;1703;51.964;7.642;2024-01-27T04:03:48;3.90;99.90
3380;DHT22;1703;51.964;7.642;2024-01-27T04:06:14;3.80;99.90
3380;DHT22;1703;51.964;7.642;2024-01-27T04:08:42;3.80;99.90
3380;DHT22;1703;51.964;7.642;2024-01-27T04:11:18;3.80;99.90
3380;DHT22;1703;51.964;7.642;2024-01-27T04:13:45;3.90;99.90
3380;DHT22;1703;51.964;7.642;2024-01-27T04:16:12;3.90;99.90
3380;DHT22;1703;51.964;7.642;2024-01-27T04:18:39;3.90;99.90
3380;DHT22;1703;51.964;7.642;2024-01-27T04:21:05;3.90;99.90
3380;DHT22;1703;51.964;7.642;2024-01-27T04:23:32;3.90;99.90
3380;DHT22;1703;51.964;7.642;2024-01-27T04:26:00;3.90;99.90
3380;DHT22;1703;51.964;7.642;2024-01-27T04:28:27;3.90;99.90
3380;DHT22;1703;51.964;7.642;2024-01-27T04:30:55;4.00;99.90
3380;DHT22;1703;51.964;7.642;2024-01-27T04:33:22;3.90;99.90
3380;DHT22;1703;51.964;7.642;2024-01-27T04:35:49;3.90;99.90
3380;DHT22;1703;51.964;7.642;2024-01-27T04:38:16;3.90;99.90
3380;DHT22;1703;51.964;7.642;2024-01-27T04:40:42;3.90;99.90
3380;DHT22;1703;51.964;7.642;2024-01-27T04:43:14;3.90;99.90
3380;DHT22;1703;51.964;7.642;2024-01-27T04:45:42;4.00;99.90
3380;DHT22;1703;51.964;7.642;2024-01-27T04:48:08;3.90;99.90
3380;DHT22;1703;51.964;7.642;2024-01-27T04:50:35;3.90;99.90
3380;DHT22;1703;51.964;7.642;2024-01-27T04:53:02;4.00;99.90
3380;DHT22;1703;51.964;7.642;2024-01-27T04:55:29;4.00;99.90
3380;DHT22;1703;51.964;7.642;2024-01-27T04:57:56;4.00;99.90
3380;DHT22;1703;51.964;7.642;2024-01-27T05:00:25;4.00;99.90
3380;DHT22;1703;51.964;7.642;2024-01-27T05:02:53;4.00;99.90
3380;DHT22;1703;51.964;7.642;2024-01-27T05:05:20;4.00;99.90
3380;DHT22;1703;51.964;7.642;2024-01-27T05:07:47;4.00;99.90
3380;DHT22;1703;51.964;7.642;2024-01-27T05:10:15;4.00;99.90
3380;DHT22;1703;51.964;7.642;2024-01-27T05:12:42;4.00;99.90
3380;DHT22;1703;51.964;7.642;2024-01-27T05:15:10;4.00;99.90
3380;DHT22;1703;51.964;7.642;2024-01-27T05:17:38;4.00;99.90
3380;DHT22;1703;51.964;7.642;2024-01-27T05:20:06;3.90;99.90
3380;DHT22;1703;51.964;7.642;2024-01-27T05:22:33;3.80;99.90
3380;DHT22;1703;51.964;7.642;2024-01-27T05:25:01;3.80;99.90
3380;DHT22;1703;51.964;7.642;2024-01-27T05:27:30;3.80;99.90
3380;DHT22;1703;51.964;7.642;2024-01-27T05:29:57;3.70;99.90
3380;DHT22;1703;51.964;7.642;2024-01-27T05:32:24;3.80;99.90
3380;DHT22;1703;51.964;7.642;2024-01-27T05:34:52;3.70;99.90
3380;DHT22;1703;51.964;7.642;2024-01-27T05:37:18;3.70;99.90
3380;DHT22;1703;51.964;7.642;2024-01-27T05:39:45;3.70;99.90
3380;DHT22;1703;51.964;7.642;2024-01-27T05:42:12;3.60;99.90
3380;DHT22;1703;51.964;7.642;2024-01-27T05:44:39;3.60;99.90
3380;DHT22;1703;51.964;7.642;2024-01-27T05:47:07;3.70;99.90
3380;DHT22;1703;51.964;7.642;2024-01-27T05:49:36;3.70;99.90
3380;DHT22;1703;51.964;7.642;2024-01-27T05:52:05;3.60;99.90
3380;DHT22;1703;51.964;7.642;2024-01-27T05:54:31;3.60;99.90
3380;DHT22;1703;51.964;7.642;2024-01-27T05:56:58;3.60;99.90
3380;DHT22;1703;51.964;7.642;2024-01-27T05:59:25;3.70;99.90
3380;DHT22;1703;51.964;7.642;2024-01-27T06:01:52;3.70;99.90
3380;DHT22;1703;51.964;7.642;2024-01-27T06:04:19;3.70;99.90
3380;DHT22;1703;51.964;7.642;2024-01-27T06:06:46;3.60;99.90
3380;DHT22;1703;51.964;7.642;2024-01-27T06:09:14;3.70;99.90
3380;DHT22;1703;51.964;7.642;2024-01-27T06:11:41;3.70;99.90
3380;DHT22;1703;51.964;7.642;2024-01-27T06:14:08;3.70;99.90
3380;DHT22;1703;51.964;7.642;2024-01-27T06:16:35;3.70;99.90
3380;DHT22;1703;51.964;7.642;2024-01-27T06:19:02;3.80;99.90
3380;DHT22;1703;51.964;7.642;2024-01-27T06:21:29;3.80;99.90
3380;DHT22;1703;51.964;7.642;2024-01-27T06:23:56;3.90;99.90
3380;DHT22;1703;51.964;7.642;2024-01-27T06:26:24;3.90;99.90
3380;DHT22;1703;51.964;7.642;2024-01-27T06:28:51;3.90;99.90
3380;DHT22;1703;51.964;7.642;2024-01-27T06:31:17;3.90;99.90
3380;DHT22;1703;51.964;7.642;2024-01-27T06:33:44;3.90;99.90
3380;DHT22;1703;51.964;7.642;2024-01-27T06:36:11;3.90;99.90
3380;DHT22;1703;51.964;7.642;2024-01-27T06:38:38;3.90;99.90
3380;DHT22;1703;51.964;7.642;2024-01-27T06:41:04;3.90;99.90
3380;DHT22;1703;51.964;7.642;2024-01-27T06:43:33;3.90;99.90
3380;DHT22;1703;51.964;7.642;2024-01-27T06:45:59;3.90;99.90
3380;DHT22;1703;51.964;7.642;2024-01-27T06:48:26;3.90;99.90
3380;DHT22;1703;51.964;7.642;2024-01-27T06:50:53;3.90;99.90
3380;DHT22;1703;51.964;7.642;2024-01-27T06:53:20;3.90;99.90
3380;DHT22;1703;51.964;7.642;2024-01-27T06:55:47;3.90;99.90
3380;DHT22;1703;51.964;7.642;2024-01-27T06:58:14;3.90;99.90
3380;DHT22;1703;51.964;7.642;2024-01-27T07:00:42;3.80;99.90
3380;DHT22;1703;51.964;7.642;2024-01-27T07:03:11;3.80;99.90
3380;DHT22;1703;51.964;7.642;2024-01-27T07:05:38;3.70;99.90
3380;DHT22;1703;51.964;7.642;2024-01-27T07:08:06;3.70;99.90
3380;DHT22;1703;51.964;7.642;2024-01-27T07:10:35;3.70;99.90
3380;DHT22;1703;51.964;7.642;2024-01-27T07:13:02;3.70;99.90
3380;DHT22;1703;51.964;7.642;2024-01-27T07:15:31;3.70;99.90
3380;DHT22;1703;51.964;7.642;2024-01-27T07:18:00;3.70;99.90
3380;DHT22;1703;51.964;7.642;2024-01-27T07:20:27;3.70;99.90
3380;DHT22;1703;51.964;7.642;2024-01-27T07:22:54;3.70;99.90
3380;DHT22;1703;51.964;7.642;2024-01-27T07:25:21;3.60;99.90
3380;DHT22;1703;51.964;7.642;2024-01-27T07:27:48;3.60;99.90
3380;DHT22;1703;51.964;7.642;2024-01-27T07:30:15;3.60;99.90
3380;DHT22;1703;51.964;7.642;2024-01-27T07:32:42;3.60;99.90
3380;DHT22;1703;51.964;7.642;2024-01-27T07:35:11;3.60;99.90
3380;DHT22;1703;51.964;7.642;2024-01-27T07:37:37;3.60;99.90
3380;DHT22;1703;51.964;7.642;2024-01-27T07:40:05;3.70;99.90
3380;DHT22;1703;51.964;7.642;2024-01-27T07:42:34;3.70;99.90
3380;DHT22;1703;51.964;7.642;2024-01-27T07:45:01;3.70;99.90
3380;DHT22;1703;51.964;7.642;2024-01-27T07:47:28;3.70;99.90
3380;DHT22;1703;51.964;7.642;2024-01-27T07:49:55;3.70;99.90
3380;DHT22;1703;51.964;7.642;2024-01-27T07:52:23;3.70;99.90
3380;DHT22;1703;51.964;7.642;2024-01-27T07:54:49;3.80;99.90
3380;DHT22;1703;51.964;7.642;2024-01-27T07:57:16;3.80;99.90
3380;DHT22;1703;51.964;7.642;2024-01-27T07:59:44;3.80;99.90
3380;DHT22;1703;51.964;7.642;2024-01-27T08:02:11;3.80;99.90
3380;DHT22;1703;51.964;7.642;2024-01-27T08:04:38;3.80;99.90
3380;DHT22;1703;51.964;7.642;2024-01-27T08:07:05;3.80;99.90
3380;DHT22;1703;51.964;7.642;2024-01-27T08:09:36;3.80;99.90
3380;DHT22;1703;51.964;7.642;2024-01-27T08:12:05;3.90;99.90
3380;DHT22;1703;51.964;7.642;2024-01-27T08:14:32;3.90;99.90
3380;DHT22;1703;51.964;7.642;2024-01-27T08:17:01;3.90;99.90
3380;DHT22;1703;51.964;7.642;2024-01-27T08:19:29;4.00;99.90
3380;DHT22;1703;51.964;7.642;2024-01-27T08:21:56;3.90;99.90
3380;DHT22;1703;51.964;7.642;2024-01-27T08:24:23;4.00;99.90
3380;DHT22;1703;51.964;7.642;2024-01-27T08:26:52;4.00;99.90
3380;DHT22;1703;51.964;7.642;2024-01-27T08:29:19;4.00;99.90
3380;DHT22;1703;51.964;7.642;2024-01-27T08:31:45;4.00;99.90
3380;DHT22;1703;51.964;7.642;2024-01-27T08:34:12;4.00;99.90
3380;DHT22;1703;51.964;7.642;2024-01-27T08:36:39;4.00;99.90
3380;DHT22;1703;51.964;7.642;2024-01-27T08:39:06;4.10;99.90
3380;DHT22;1703;51.964;7.642;2024-01-27T08:41:34;4.10;99.90
3380;DHT22;1703;51.964;7.642;2024-01-27T08:44:03;4.30;99.90
3380;DHT22;1703;51.964;7.642;2024-01-27T08:46:30;4.30;99.90
3380;DHT22;1703;51.964;7.642;2024-01-27T08:48:57;4.30;99.90
3380;DHT22;1703;51.964;7.642;2024-01-27T08:51:24;4.40;99.90
3380;DHT22;1703;51.964;7.642;2024-01-27T08:53:51;4.40;99.90
3380;DHT22;1703;51.964;7.642;2024-01-27T08:56:18;4.40;99.90
3380;DHT22;1703;51.964;7.642;2024-01-27T08:58:45;4.40;99.90
3380;DHT22;1703;51.964;7.642;2024-01-27T09:01:15;4.50;99.90
3380;DHT22;1703;51.964;7.642;2024-01-27T09:03:43;4.50;99.90
3380;DHT22;1703;51.964;7.642;2024-01-27T09:06:09;4.50;99.90
3380;DHT22;1703;51.964;7.642;2024-01-27T09:08:36;4.60;99.90
3380;DHT22;1703;51.964;7.642;2024-01-27T09:11:04;4.60;99.90
3380;DHT22;1703;51.964;7.642;2024-01-27T09:13:31;4.60;99.90
3380;DHT22;1703;51.964;7.642;2024-01-27T09:15:58;4.70;99.90
3380;DHT22;1703;51.964;7.642;2024-01-27T09:18:26;4.70;99.90
3380;DHT22;1703;51.964;7.642;2024-01-27T09:20:53;4.80;99.90
3380;DHT22;1703;51.964;7.642;2024-01-27T09:23:20;4.70;99.90
3380;DHT22;1703;51.964;7.642;2024-01-27T09:25:47;4.80;99.90
3380;DHT22;1703;51.964;7.642;2024-01-27T09:28:14;4.80;99.90
3380;DHT22;1703;51.964;7.642;2024-01-27T09:30:41;4.90;99.90
3380;DHT22;1703;51.964;7.642;2024-01-27T09:33:08;4.90;99.90
3380;DHT22;1703;51.964;7.642;2024-01-27T09:35:37;4.90;99.90
3380;DHT22;1703;51.964;7.642;2024-01-27T09:38:04;5.00;99.90
3380;DHT22;1703;51.964;7.642;2024-01-27T09:40:31;5.10;99.90
3380;DHT22;1703;51.964;7.642;2024-01-27T09:42:59;5.20;99.90
3380;DHT22;1703;51.964;7.642;2024-01-27T09:45:26;5.30;99.90
3380;DHT22;1703;51.964;7.642;2024-01-27T09:47:55;5.40;99.90
3380;DHT22;1703;51.964;7.642;2024-01-27T09:50:23;5.40;99.90
3380;DHT22;1703;51.964;7.642;2024-01-27T09:52:52;5.30;99.90
3380;DHT22;1703;51.964;7.642;2024-01-27T09:55:19;5.30;99.90
3380;DHT22;1703;51.964;7.642;2024-01-27T09:57:46;5.20;99.90
3380;DHT22;1703;51.964;7.642;2024-01-27T10:00:14;5.30;99.90
3380;DHT22;1703;51.964;7.642;2024-01-27T10:02:42;5.30;99.90
3380;DHT22;1703;51.964;7.642;2024-01-27T10:05:09;5.30;99.90
3380;DHT22;1703;51.964;7.642;2024-01-27T10:07:37;5.30;99.90
3380;DHT22;1703;51.964;7.642;2024-01-27T10:10:06;5.30;99.90
3380;DHT22;1703;51.964;7.642;2024-01-27T10:12:34;5.30;99.90
3380;DHT22;1703;51.964;7.642;2024-01-27T10:15:05;5.40;99.90
3380;DHT22;1703;51.964;7.642;2024-01-27T10:17:32;5.40;99.90
3380;DHT22;1703;51.964;7.642;2024-01-27T10:20:02;5.50;99.90
3380;DHT22;1703;51.964;7.642;2024-01-27T10:22:37;5.60;99.90
3380;DHT22;1703;51.964;7.642;2024-01-27T10:25:07;5.60;99.90
3380;DHT22;1703;51.964;7.642;2024-01-27T10:27:34;5.60;99.90
3380;DHT22;1703;51.964;7.642;2024-01-27T10:30:01;5.50;99.90
3380;DHT22;1703;51.964;7.642;2024-01-27T10:32:28;5.50;99.90
3380;DHT22;1703;51.964;7.642;2024-01-27T10:35:02;5.60;99.90
3380;DHT22;1703;51.964;7.642;2024-01-27T10:37:28;5.70;99.90
3380;DHT22;1703;51.964;7.642;2024-01-27T10:40:00;5.70;99.90
3380;DHT22;1703;51.964;7.642;2024-01-27T10:42:29;5.80;99.90
3380;DHT22;1703;51.964;7.642;2024-01-27T10:44:58;5.90;99.90
3380;DHT22;1703;51.964;7.642;2024-01-27T10:47:27;6.00;99.90
3380;DHT22;1703;51.964;7.642;2024-01-27T10:49:55;6.10;99.90
3380;DHT22;1703;51.964;7.642;2024-01-27T10:52:24;6.30;99.90
3380;DHT22;1703;51.964;7.642;2024-01-27T10:54:59;6.30;99.90
3380;DHT22;1703;51.964;7.642;2024-01-27T10:57:30;6.40;99.90
3380;DHT22;1703;51.964;7.642;2024-01-27T10:59:59;6.40;99.90
3380;DHT22;1703;51.964;7.642;2024-01-27T11:02:28;6.50;99.90
3380;DHT22;1703;51.964;7.642;2024-01-27T11:04:59;6.50;99.90
3380;DHT22;1703;51.964;7.642;2024-01-27T11:07:27;6.50;99.90
3380;DHT22;1703;51.964;7.642;2024-01-27T11:09:57;6.60;99.90
3380;DHT22;1703;51.964;7.642;2024-01-27T11:12:25;6.60;99.90
3380;DHT22;1703;51.964;7.642;2024-01-27T11:14:54;6.70;99.90
3380;DHT22;1703;51.964;7.642;2024-01-27T11:17:24;6.70;99.90
3380;DHT22;1703;51.964;7.642;2024-01-27T11:19:51;6.80;99.90
3380;DHT22;1703;51.964;7.642;2024-01-27T11:22:24;6.90;99.90
3380;DHT22;1703;51.964;7.642;2024-01-27T11:24:52;6.90;99.90
3380;DHT22;1703;51.964;7.642;2024-01-27T11:27:26;7.00;99.90
3380;DHT22;1703;51.964;7.642;2024-01-27T11:29:56;7.00;99.90
3380;DHT22;1703;51.964;7.642;2024-01-27T11:32:23;7.00;99.90
3380;DHT22;1703;51.964;7.642;2024-01-27T11:34:51;7.00;99.90
3380;DHT22;1703;51.964;7.642;2024-01-27T11:37:18;6.90;99.90
3380;DHT22;1703;51.964;7.642;2024-01-27T11:39:49;6.90;99.90
3380;DHT22;1703;51.964;7.642;2024-01-27T11:42:17;6.90;99.90
3380;DHT22;1703;51.964;7.642;2024-01-27T11:44:44;7.00;99.90
3380;DHT22;1703;51.964;7.642;2024-01-27T11:47:17;6.90;99.90
3380;DHT22;1703;51.964;7.642;2024-01-27T11:49:50;6.90;99.90
3380;DHT22;1703;51.964;7.642;2024-01-27T11:52:18;7.00;99.90
3380;DHT22;1703;51.964;7.642;2024-01-27T11:54:45;7.00;99.90
3380;DHT22;1703;51.964;7.642;2024-01-27T11:57:12;7.00;99.90
3380;DHT22;1703;51.964;7.642;2024-01-27T11:59:39;7.00;99.90
3380;DHT22;1703;51.964;7.642;2024-01-27T12:02:06;7.10;99.90
3380;DHT22;1703;51.964;7.642;2024-01-27T12:04:34;7.10;99.90
3380;DHT22;1703;51.964;7.642;2024-01-27T12:07:02;7.20;99.90
3380;DHT22;1703;51.964;7.642;2024-01-27T12:09:28;7.20;99.90
3380;DHT22;1703;51.964;7.642;2024-01-27T12:11:55;7.30;99.90
3380;DHT22;1703;51.964;7.642;2024-01-27T12:14:22;7.40;99.90
3380;DHT22;1703;51.964;7.642;2024-01-27T12:16:51;7.40;99.90
3380;DHT22;1703;51.964;7.642;2024-01-27T12:19:19;7.40;99.90
3380;DHT22;1703;51.964;7.642;2024-01-27T12:21:50;7.40;99.90
3380;DHT22;1703;51.964;7.642;2024-01-27T12:24:17;7.40;99.90
3380;DHT22;1703;51.964;7.642;2024-01-27T12:26:45;7.40;99.90
3380;DHT22;1703;51.964;7.642;2024-01-27T12:29:12;7.40;99.90
3380;DHT22;1703;51.964;7.642;2024-01-27T12:31:39;7.50;99.90
3380;DHT22;1703;51.964;7.642;2024-01-27T12:34:07;7.50;99.90
3380;DHT22;1703;51.964;7.642;2024-01-27T12:36:34;7.60;99.90
3380;DHT22;1703;51.964;7.642;2024-01-27T12:39:08;7.70;99.90
3380;DHT22;1703;51.964;7.642;2024-01-27T12:41:35;7.60;99.90
3380;DHT22;1703;51.964;7.642;2024-01-27T12:44:03;7.60;99.90
3380;DHT22;1703;51.964;7.642;2024-01-27T12:46:29;7.70;99.90
3380;DHT22;1703;51.964;7.642;2024-01-27T12:48:57;7.70;99.90
3380;DHT22;1703;51.964;7.642;2024-01-27T12:51:23;7.70;99.90
3380;DHT22;1703;51.964;7.642;2024-01-27T12:53:50;7.80;99.90
3380;DHT22;1703;51.964;7.642;2024-01-27T12:56:20;7.80;99.90
3380;DHT22;1703;51.964;7.642;2024-01-27T12:58:47;7.90;99.90
3380;DHT22;1703;51.964;7.642;2024-01-27T13:01:14;7.80;99.90
3380;DHT22;1703;51.964;7.642;2024-01-27T13:03:41;7.90;99.90
3380;DHT22;1703;51.964;7.642;2024-01-27T13:06:08;7.80;99.90
3380;DHT22;1703;51.964;7.642;2024-01-27T13:08:36;7.90;99.90
3380;DHT22;1703;51.964;7.642;2024-01-27T13:11:03;7.90;99.90
3380;DHT22;1703;51.964;7.642;2024-01-27T13:13:34;7.90;99.90
3380;DHT22;1703;51.964;7.642;2024-01-27T13:16:00;8.00;99.90
3380;DHT22;1703;51.964;7.642;2024-01-27T13:18:28;7.90;99.90
3380;DHT22;1703;51.964;7.642;2024-01-27T13:20:54;8.00;99.90
3380;DHT22;1703;51.964;7.642;2024-01-27T13:23:21;8.00;99.90
3380;DHT22;1703;51.964;7.642;2024-01-27T13:25:48;8.00;99.90
3380;DHT22;1703;51.964;7.642;2024-01-27T13:28:15;8.00;99.90
3380;DHT22;1703;51.964;7.642;2024-01-27T13:30:44;8.10;99.90
3380;DHT22;1703;51.964;7.642;2024-01-27T13:33:11;8.10;99.90
3380;DHT22;1703;51.964;7.642;2024-01-27T13:35:40;8.10;99.90
3380;DHT22;1703;51.964;7.642;2024-01-27T13:38:08;8.10;99.90
3380;DHT22;1703;51.964;7.642;2024-01-27T13:40:35;8.10;99.90
3380;DHT22;1703;51.964;7.642;2024-01-27T13:43:02;8.10;99.90
3380;DHT22;1703;51.964;7.642;2024-01-27T13:45:29;8.10;99.90
3380;DHT22;1703;51.964;7.642;2024-01-27T13:47:57;8.20;99.90
3380;DHT22;1703;51.964;7.642;2024-01-27T13:50:26;8.20;99.90
3380;DHT22;1703;51.964;7.642;2024-01-27T13:52:56;8.20;99.90
3380;DHT22;1703;51.964;7.642;2024-01-27T13:55:23;8.30;99.90
3380;DHT22;1703;51.964;7.642;2024-01-27T13:57:50;8.30;99.90
3380;DHT22;1703;51.964;7.642;2024-01-27T14:00:18;8.30;99.90
3380;DHT22;1703;51.964;7.642;2024-01-27T14:02:47;8.30;99.90
3380;DHT22;1703;51.964;7.642;2024-01-27T14:05:15;8.30;99.90
3380;DHT22;1703;51.964;7.642;2024-01-27T14:07:43;8.40;99.90
3380;DHT22;1703;51.964;7.642;2024-01-27T14:10:09;8.30;99.90
3380;DHT22;1703;51.964;7.642;2024-01-27T14:12:36;8.30;99.90
3380;DHT22;1703;51.964;7.642;2024-01-27T14:15:04;8.20;99.90
3380;DHT22;1703;51.964;7.642;2024-01-27T14:17:33;8.20;99.90
3380;DHT22;1703;51.964;7.642;2024-01-27T14:20:01;8.30;99.90
3380;DHT22;1703;51.964;7.642;2024-01-27T14:22:29;8.30;99.90
3380;DHT22;1703;51.964;7.642;2024-01-27T14:24:56;8.20;99.90
3380;DHT22;1703;51.964;7.642;2024-01-27T14:27:23;8.30;99.90
3380;DHT22;1703;51.964;7.642;2024-01-27T14:29:52;8.20;99.90
3380;DHT22;1703;51.964;7.642;2024-01-27T14:32:20;8.20;99.90
3380;DHT22;1703;51.964;7.642;2024-01-27T14:34:47;8.20;99.90
3380;DHT22;1703;51.964;7.642;2024-01-27T14:37:14;8.20;99.90
3380;DHT22;1703;51.964;7.642;2024-01-27T14:39:43;8.10;99.90
3380;DHT22;1703;51.964;7.642;2024-01-27T14:42:11;8.10;99.90
3380;DHT22;1703;51.964;7.642;2024-01-27T14:44:38;8.10;99.90
3380;DHT22;1703;51.964;7.642;2024-01-27T14:47:05;8.10;99.90
3380;DHT22;1703;51.964;7.642;2024-01-27T14:49:32;8.10;99.90
3380;DHT22;1703;51.964;7.642;2024-01-27T14:51:59;8.10;99.90
3380;DHT22;1703;51.964;7.642;2024-01-27T14:54:26;8.20;99.90
3380;DHT22;1703;51.964;7.642;2024-01-27T14:56:54;8.10;99.90
3380;DHT22;1703;51.964;7.642;2024-01-27T14:59:21;8.10;99.90
3380;DHT22;1703;51.964;7.642;2024-01-27T15:01:48;8.10;99.90
3380;DHT22;1703;51.964;7.642;2024-01-27T15:04:16;8.10;99.90
3380;DHT22;1703;51.964;7.642;2024-01-27T15:06:43;8.20;99.90
3380;DHT22;1703;51.964;7.642;2024-01-27T15:09:11;8.20;99.90
3380;DHT22;1703;51.964;7.642;2024-01-27T15:11:41;8.20;99.90
3380;DHT22;1703;51.964;7.642;2024-01-27T15:14:09;8.20;99.90
3380;DHT22;1703;51.964;7.642;2024-01-27T15:16:36;8.10;99.90
3380;DHT22;1703;51.964;7.642;2024-01-27T15:19:03;8.00;99.90
3380;DHT22;1703;51.964;7.642;2024-01-27T15:21:30;8.00;99.90
3380;DHT22;1703;51.964;7.642;2024-01-27T15:23:57;8.00;99.90
3380;DHT22;1703;51.964;7.642;2024-01-27T15:26:24;8.00;99.90
3380;DHT22;1703;51.964;7.642;2024-01-27T15:28:51;8.00;99.90
3380;DHT22;1703;51.964;7.642;2024-01-27T15:31:19;8.00;99.90
3380;DHT22;1703;51.964;7.642;2024-01-27T15:33:46;7.90;99.90
3380;DHT22;1703;51.964;7.642;2024-01-27T15:36:13;7.90;99.90
3380;DHT22;1703;51.964;7.642;2024-01-27T15:38:40;7.90;99.90
3380;DHT22;1703;51.964;7.642;2024-01-27T15:41:06;7.90;99.90
3380;DHT22;1703;51.964;7.642;2024-01-27T15:43:34;7.90;99.90
3380;DHT22;1703;51.964;7.642;2024-01-27T15:46:01;7.90;99.90
3380;DHT22;1703;51.964;7.642;2024-01-27T15:48:32;7.90;99.90
3380;DHT22;1703;51.964;7.642;2024-01-27T15:50:59;7.90;99.90
3380;DHT22;1703;51.964;7.642;2024-01-27T15:53:26;7.90;99.90
3380;DHT22;1703;51.964;7.642;2024-01-27T15:55:53;7.80;99.90
3380;DHT22;1703;51.964;7.642;2024-01-27T15:58:20;7.80;99.90
3380;DHT22;1703;51.964;7.642;2024-01-27T16:00:47;7.80;99.90
3380;DHT22;1703;51.964;7.642;2024-01-27T16:03:14;7.80;99.90
3380;DHT22;1703;51.964;7.642;2024-01-27T16:05:43;7.80;99.90
3380;DHT22;1703;51.964;7.642;2024-01-27T16:08:09;7.70;99.90
3380;DHT22;1703;51.964;7.642;2024-01-27T16:10:38;7.70;99.90
3380;DHT22;1703;51.964;7.642;2024-01-27T16:13:05;7.70;99.90
3380;DHT22;1703;51.964;7.642;2024-01-27T16:15:31;7.60;99.90
3380;DHT22;1703;51.964;7.642;2024-01-27T16:17:58;7.60;99.90